ドーハ の空港の天気 - METARとTAF

ドーハ国際空港 ( OTBD / DOH ) - カタール ドーハ
飛行場実況気象(Metar)
観測時間01/16 21:30 AST (01/16 18:30 UTC)
風向・風速北北西 4m/s
視程8000m
天気現象
なし
気温20℃
湿度83%
気圧1013hPa
METAROTBD 161830Z 33007KT 8000 NSC 20/17 Q1013 NOSIG
過去の天気等 Google飛行場航空写真 Wunderground天気予報

過去48時間のMETAR

飛行場予報(TAF)
発表時間: 1/16 20:09 AST (1/16 17:09 UTC)
予報対象時間: 16日21時 AST ~ 18日3時 AST
風向・風速北北西 4m/s
視程8000m
少しの雲 雲底高度 760m
17日5時 AST ~ 17日8時 AST に一時的に
風向・風速不定 2m/s
17日5時 AST ~ 17日8時 AST に 確率 30% で一時的に
視程3000m
天気現象もや
17日10時 AST ~ 17日12時 AST に徐々に
風向・風速北東 4m/s
TAF OTBD 161709Z 1618/1724 34007KT 8000 FEW025
TEMPO 1702/1705 VRB03KT
PROB30 TEMPO 1702/1705 3000 BR
BECMG 1707/1709 04007KT